Terminal Aerodrome Forecast
Issued by NWS

Home | Current Version | Previous Version | Text Only | Print | Product List | Glossary On
Versions: 1 2 3 4 5 6 7 8 9 10 11 12 13 14 15 16 17 18 19 20 21 22 23 24 25 26 27 28 29 30 31 32 33 34 35 36 37
000
FTUS44 KHGX 281219 AAA
TAFCXO
TAF AMD
KCXO 281219Z 2812/2912 15006KT 4SM BR SCT017 OVC024
     FM281500 17014KT P6SM BKN028
      TEMPO 2815/2818 SCT035
     FM281800 16017G25KT P6SM SCT040
     FM290000 14014G22KT P6SM BKN030
     FM290600 15014KT P6SM SCT012 BKN025=

USA.gov is the U.S. government's official web portal to all federal, state and local government web resources and services.